createdAt,value
2023-01-13T00:18:11.615Z,2.40
2023-01-13T00:20:44.459Z,2.50
2023-01-13T00:23:18.738Z,2.28
2023-01-13T00:26:18.273Z,2.88
2023-01-13T00:28:46.758Z,2.42
2023-01-13T00:31:31.688Z,2.20
2023-01-13T00:34:09.094Z,2.90
2023-01-13T00:36:37.749Z,2.25
2023-01-13T00:39:15.163Z,2.38
2023-01-13T00:42:07.843Z,2.00
2023-01-13T00:44:39.591Z,2.08
2023-01-13T00:47:13.452Z,2.30
2023-01-13T00:49:41.964Z,2.90
2023-01-13T00:52:10.199Z,3.15
2023-01-13T00:54:38.607Z,2.80
2023-01-13T00:57:09.829Z,3.13
2023-01-13T00:59:43.989Z,2.08
2023-01-13T01:08:48.491Z,3.55
2023-01-13T01:11:22.298Z,3.40
2023-01-13T01:13:55.409Z,2.85
2023-01-13T01:16:26.373Z,3.65
2023-01-13T01:18:57.053Z,3.08
2023-01-13T01:21:26.779Z,3.17
2023-01-13T01:26:35.738Z,2.33
2023-01-13T01:29:22.431Z,1.92
2023-01-13T01:31:51.033Z,2.20
2023-01-13T01:34:19.322Z,2.83
2023-01-13T01:36:47.777Z,2.13
2023-01-13T01:39:19.201Z,2.65
2023-01-13T01:42:12.210Z,2.20
2023-01-13T01:45:01.760Z,2.35
2023-01-13T01:47:53.446Z,2.58
2023-01-13T01:50:58.652Z,3.40
2023-01-13T01:54:18.370Z,2.85
2023-01-13T01:56:48.469Z,2.53
2023-01-13T01:59:53.580Z,2.63
2023-01-13T02:02:34.901Z,2.88
2023-01-13T02:05:09.397Z,2.50
2023-01-13T02:07:51.467Z,3.30
2023-01-13T02:10:49.974Z,2.65
2023-01-13T02:13:34.640Z,1.85
2023-01-13T02:16:29.070Z,1.95
2023-01-13T02:22:38.309Z,1.80
2023-01-13T02:25:41.443Z,1.65
2023-01-13T02:29:16.853Z,1.60
2023-01-13T02:31:51.283Z,1.10
2023-01-13T02:34:49.072Z,1.95
2023-01-13T02:37:24.499Z,1.52
2023-01-13T02:40:12.753Z,1.33
2023-01-13T02:43:12.072Z,1.85
2023-01-13T02:45:57.003Z,1.50
2023-01-13T02:48:45.827Z,1.25
2023-01-13T02:51:20.906Z,1.42
2023-01-13T02:53:54.568Z,1.60
2023-01-13T02:56:25.562Z,1.42
2023-01-13T02:58:56.845Z,1.23
2023-01-13T03:03:53.789Z,1.52
2023-01-13T03:06:47.323Z,1.52
2023-01-13T03:09:30.736Z,2.10
2023-01-13T03:12:16.689Z,1.75
2023-01-13T03:14:58.397Z,1.90
2023-01-13T03:17:43.706Z,1.70
2023-01-13T03:20:30.309Z,1.58
2023-01-13T03:23:14.481Z,1.20
2023-01-13T03:25:55.004Z,1.10
2023-01-13T03:28:34.243Z,1.30
2023-01-13T03:31:11.123Z,1.65
2023-01-13T03:33:47.048Z,1.40
2023-01-13T03:36:18.420Z,1.05
2023-01-13T03:41:35.801Z,1.15
2023-01-13T03:44:29.658Z,1.80
2023-01-13T03:47:08.670Z,1.30
2023-01-13T03:50:03.015Z,1.33
2023-01-13T03:52:39.056Z,1.23
2023-01-13T03:55:30.049Z,1.63
2023-01-13T03:58:15.244Z,1.35
2023-01-13T04:00:52.360Z,1.30
2023-01-13T04:03:29.980Z,1.27
2023-01-13T04:06:10.483Z,1.40
2023-01-13T04:08:43.418Z,1.75
2023-01-13T04:11:19.449Z,1.45
2023-01-13T04:13:50.729Z,1.05
2023-01-13T04:16:19.095Z,1.30
2023-01-13T04:18:47.370Z,1.20
2023-01-13T04:21:15.614Z,1.67
2023-01-13T04:23:43.947Z,1.40
2023-01-13T04:26:13.528Z,1.30
2023-01-13T04:28:41.735Z,1.40
2023-01-13T04:31:10.180Z,1.95
2023-01-13T04:33:38.408Z,1.15
2023-01-13T04:36:07.007Z,1.13
2023-01-13T04:38:35.257Z,1.38
2023-01-13T04:41:03.505Z,1.40
2023-01-13T04:43:31.750Z,1.33
2023-01-13T04:46:00.034Z,1.58
2023-01-13T04:48:28.309Z,1.30
2023-01-13T04:50:56.567Z,1.30
2023-01-13T04:53:25.673Z,1.20
2023-01-13T04:55:53.999Z,1.42
2023-01-13T04:58:22.530Z,1.38
2023-01-13T05:00:52.369Z,1.17
2023-01-13T05:03:20.718Z,1.35
2023-01-13T05:05:53.159Z,1.40
2023-01-13T05:08:21.421Z,1.50
2023-01-13T05:10:49.743Z,1.75
2023-01-13T05:13:36.715Z,1.40
2023-01-13T05:16:24.899Z,1.60
2023-01-13T05:18:53.223Z,1.30
2023-01-13T05:21:39.710Z,1.67
2023-01-13T05:24:28.124Z,1.20
2023-01-13T05:26:57.321Z,1.42
2023-01-13T05:29:25.549Z,1.50
2023-01-13T05:31:53.910Z,1.70
2023-01-13T05:34:22.185Z,1.90
2023-01-13T05:36:50.437Z,1.77
2023-01-13T05:39:18.691Z,1.42
2023-01-13T05:42:05.164Z,1.50
2023-01-13T05:44:33.419Z,1.42
2023-01-13T05:47:01.648Z,1.35
2023-01-13T05:49:29.876Z,1.60
2023-01-13T05:51:58.420Z,1.58
2023-01-13T05:54:26.686Z,1.70
2023-01-13T05:56:54.929Z,1.90
2023-01-13T05:59:23.279Z,1.92
2023-01-13T06:01:51.529Z,1.85
2023-01-13T06:04:19.874Z,2.08
2023-01-13T06:06:49.432Z,1.85
2023-01-13T06:09:17.683Z,2.20
2023-01-13T06:11:47.252Z,2.22
2023-01-13T06:14:15.921Z,2.25
2023-01-13T06:16:46.247Z,1.65
2023-01-13T06:19:14.663Z,2.67
2023-01-13T06:21:45.819Z,1.90
2023-01-13T06:24:14.054Z,1.98
2023-01-13T06:26:43.379Z,1.85
2023-01-13T06:29:14.943Z,2.00
2023-01-13T06:31:43.588Z,2.63
2023-01-13T06:34:15.318Z,1.70
2023-01-13T06:36:49.575Z,1.70
2023-01-13T06:39:21.361Z,1.80
2023-01-13T06:42:10.258Z,2.00
2023-01-13T06:44:38.562Z,1.80
2023-01-13T06:47:07.960Z,2.00
2023-01-13T06:49:36.211Z,1.77
2023-01-13T06:52:04.515Z,2.15
2023-01-13T06:54:32.834Z,1.90
2023-01-13T06:57:01.426Z,2.20
2023-01-13T06:59:29.957Z,2.20
2023-01-13T07:01:58.389Z,2.22
2023-01-13T07:04:27.265Z,1.85
2023-01-13T07:06:56.243Z,1.75
2023-01-13T07:09:24.617Z,2.00
2023-01-13T07:11:53.623Z,1.80
2023-01-13T07:14:40.568Z,2.03
2023-01-13T07:17:08.835Z,1.83
2023-01-13T07:19:37.118Z,1.83
2023-01-13T07:22:05.417Z,1.80
2023-01-13T07:24:34.915Z,1.88
2023-01-13T07:27:03.176Z,1.98
2023-01-13T07:29:31.434Z,2.35
2023-01-13T07:31:59.757Z,2.42
2023-01-13T07:34:27.982Z,2.13
2023-01-13T07:36:56.213Z,2.30
2023-01-13T07:39:24.448Z,2.50
2023-01-13T07:42:11.103Z,1.90
2023-01-13T07:44:39.353Z,2.30
2023-01-13T07:47:09.405Z,2.13
2023-01-13T07:49:38.001Z,2.35
2023-01-13T07:52:06.479Z,1.75
2023-01-13T07:54:40.498Z,2.30
2023-01-13T07:57:10.558Z,2.10
2023-01-13T07:59:38.866Z,1.50
2023-01-13T08:02:07.513Z,2.80
2023-01-13T08:04:36.036Z,2.17
2023-01-13T08:07:06.000Z,2.53
2023-01-13T08:09:34.278Z,2.05
2023-01-13T08:12:20.718Z,2.47
2023-01-13T08:14:50.975Z,1.95
2023-01-13T08:17:20.530Z,1.83
2023-01-13T08:19:48.999Z,2.15
2023-01-13T08:22:17.264Z,1.35
2023-01-13T08:24:46.360Z,1.45
2023-01-13T08:27:14.662Z,1.38
2023-01-13T08:29:42.927Z,1.10
2023-01-13T08:32:11.190Z,1.25
2023-01-13T08:34:39.449Z,1.48
2023-01-13T08:37:07.697Z,0.70
2023-01-13T08:39:36.999Z,1.92
2023-01-13T08:42:06.201Z,1.00
2023-01-13T08:44:34.978Z,1.20
2023-01-13T08:47:03.649Z,1.08
2023-01-13T08:49:31.960Z,1.00
2023-01-13T08:52:00.346Z,0.80
2023-01-13T08:54:28.660Z,1.17
2023-01-13T08:56:57.117Z,1.42
2023-01-13T08:59:25.507Z,1.60
2023-01-13T09:01:53.991Z,1.90
2023-01-13T09:04:25.648Z,1.83
2023-01-13T09:06:54.644Z,2.10
2023-01-13T09:09:23.891Z,1.50
2023-01-13T09:12:11.471Z,1.40
2023-01-13T09:14:41.086Z,1.40
2023-01-13T09:17:09.605Z,1.60
2023-01-13T09:19:38.227Z,1.38
2023-01-13T09:22:06.503Z,1.60
2023-01-13T09:24:35.615Z,1.25
2023-01-13T09:27:03.951Z,1.65
2023-01-13T09:29:32.256Z,1.70
2023-01-13T09:32:00.579Z,2.00
2023-01-13T09:34:47.231Z,2.28
2023-01-13T09:37:15.639Z,2.30
2023-01-13T09:39:43.916Z,2.42
2023-01-13T09:42:55.616Z,2.70
2023-01-13T09:45:43.654Z,2.60
2023-01-13T09:48:18.012Z,1.80
2023-01-13T09:51:00.945Z,1.83
2023-01-13T09:53:34.262Z,2.22
2023-01-13T09:56:02.992Z,1.67
2023-01-13T09:58:31.422Z,1.85
2023-01-13T10:01:21.075Z,1.25
2023-01-13T10:03:50.244Z,1.45
2023-01-13T10:06:34.283Z,2.13
2023-01-13T10:09:02.891Z,2.65
2023-01-13T10:11:55.536Z,2.70
2023-01-13T10:14:29.442Z,2.20
2023-01-13T10:17:12.783Z,2.20
2023-01-13T10:19:51.882Z,2.03
2023-01-13T10:22:54.410Z,1.23
2023-01-13T10:25:46.218Z,1.15
2023-01-13T10:28:19.183Z,0.70
2023-01-13T10:30:48.815Z,0.80
2023-01-13T10:33:29.403Z,0.70
2023-01-13T10:36:16.941Z,1.27
2023-01-13T10:38:50.039Z,0.90
2023-01-13T10:41:26.977Z,1.55
2023-01-13T10:44:06.349Z,1.40
2023-01-13T10:46:52.069Z,1.50
2023-01-13T10:49:39.425Z,1.50
2023-01-13T10:52:27.600Z,1.45
2023-01-13T10:54:56.724Z,1.88
2023-01-13T10:57:27.978Z,1.60
2023-01-13T10:59:57.219Z,1.65
2023-01-13T11:02:30.427Z,1.92
2023-01-13T11:05:01.698Z,1.80
2023-01-13T11:07:31.935Z,1.90
2023-01-13T11:10:07.767Z,2.08
2023-01-13T11:12:45.046Z,1.88
2023-01-13T11:15:21.019Z,2.03
2023-01-13T11:18:05.830Z,2.38
2023-01-13T11:20:42.153Z,2.28
2023-01-13T11:23:28.211Z,2.00
2023-01-13T11:26:07.980Z,2.08
2023-01-13T11:29:03.148Z,2.83
2023-01-13T11:31:38.361Z,1.98
2023-01-13T11:34:38.497Z,2.38
2023-01-13T11:37:29.817Z,1.98
2023-01-13T11:40:14.728Z,3.13
2023-01-13T11:43:04.836Z,2.25
2023-01-13T11:45:49.133Z,1.85
2023-01-13T11:48:23.926Z,1.98
2023-01-13T11:51:16.996Z,1.42
2023-01-13T11:54:03.530Z,2.30
2023-01-13T11:56:52.488Z,2.10
2023-01-13T11:59:32.326Z,1.85
2023-01-13T12:02:29.692Z,1.63
2023-01-13T12:05:06.984Z,1.20
2023-01-13T12:07:45.050Z,1.13
2023-01-13T12:10:18.350Z,1.08
2023-01-13T12:13:04.491Z,0.80
2023-01-13T12:16:03.498Z,1.35
2023-01-13T12:18:37.646Z,1.00
2023-01-13T12:21:27.798Z,1.00
2023-01-13T12:24:00.880Z,1.73
2023-01-13T12:26:34.209Z,1.17
2023-01-13T12:29:08.510Z,1.17
2023-01-13T12:31:41.593Z,1.25
2023-01-13T12:34:17.484Z,0.95
2023-01-13T12:37:15.615Z,0.73
2023-01-13T12:40:00.254Z,1.20
2023-01-13T12:43:02.009Z,1.00
2023-01-13T12:48:02.918Z,1.00
2023-01-13T12:50:31.072Z,0.77
2023-01-13T12:53:02.048Z,0.88
2023-01-13T12:55:34.250Z,0.73
2023-01-13T12:58:11.304Z,1.05
2023-01-13T13:00:42.507Z,0.70
2023-01-13T13:03:14.557Z,0.80
2023-01-13T13:06:13.836Z,0.80
2023-01-13T13:09:18.598Z,1.10
2023-01-13T13:12:04.517Z,1.15
2023-01-13T13:14:38.653Z,1.00
2023-01-13T13:17:35.417Z,0.68
2023-01-13T13:20:04.158Z,0.90
2023-01-13T13:22:45.039Z,1.02
2023-01-13T13:25:24.789Z,1.38
2023-01-13T13:28:10.921Z,1.10
2023-01-13T13:30:46.042Z,1.33
2023-01-13T13:33:38.382Z,1.13
2023-01-13T13:36:36.546Z,1.55
2023-01-13T13:39:24.774Z,1.55
2023-01-13T13:42:30.128Z,1.58
2023-01-13T13:45:19.179Z,1.38
2023-01-13T13:47:47.568Z,1.50
2023-01-13T13:50:33.634Z,1.40
2023-01-13T13:53:09.265Z,1.48
2023-01-13T13:55:39.462Z,2.03
2023-01-13T13:58:18.107Z,2.33
2023-01-13T14:00:49.518Z,2.05
2023-01-13T14:06:00.954Z,1.77
2023-01-13T14:08:31.528Z,1.77
2023-01-13T14:11:00.079Z,2.00
2023-01-13T14:13:31.267Z,1.70
2023-01-13T14:16:04.961Z,1.30
2023-01-13T14:18:47.381Z,1.30
2023-01-13T14:21:28.757Z,1.20
2023-01-13T14:24:18.758Z,0.43
2023-01-13T14:26:54.296Z,1.27
2023-01-13T14:29:25.138Z,1.02
2023-01-13T14:31:56.141Z,0.30
2023-01-13T14:34:31.248Z,1.20
2023-01-13T14:37:29.497Z,0.90
2023-01-13T14:39:58.507Z,2.03
2023-01-13T14:42:28.825Z,0.88
2023-01-13T14:44:57.202Z,0.63
2023-01-13T14:47:32.688Z,0.90
2023-01-13T14:50:12.238Z,1.45
2023-01-13T14:52:58.308Z,0.50
2023-01-13T14:55:41.217Z,0.50
2023-01-13T14:58:27.815Z,0.70
2023-01-13T15:01:30.545Z,1.13
2023-01-13T15:04:29.288Z,1.13
2023-01-13T15:06:59.265Z,0.90
2023-01-13T15:12:33.664Z,1.10
2023-01-13T15:15:02.652Z,1.50
2023-01-13T15:17:33.213Z,1.15
2023-01-13T15:20:02.776Z,1.90
2023-01-13T15:22:31.074Z,1.52
2023-01-13T15:24:59.506Z,1.13
2023-01-13T15:27:27.892Z,1.70
2023-01-13T15:29:56.240Z,2.50
2023-01-13T15:32:26.225Z,2.25
2023-01-13T15:34:54.625Z,2.35
2023-01-13T15:37:34.668Z,1.73
2023-01-13T15:40:03.154Z,1.70
2023-01-13T15:42:49.766Z,1.58
2023-01-13T15:45:36.408Z,1.65
2023-01-13T15:48:05.037Z,2.75
2023-01-13T15:50:39.649Z,0.82
2023-01-13T15:53:08.225Z,2.10
2023-01-13T15:55:39.411Z,0.73
2023-01-13T15:58:07.768Z,1.65
2023-01-13T16:00:36.093Z,1.35
2023-01-13T16:03:04.450Z,1.23
2023-01-13T16:05:32.690Z,1.50
2023-01-13T16:08:00.944Z,1.30
2023-01-13T16:10:29.604Z,0.52
2023-01-13T16:12:58.097Z,1.75
2023-01-13T16:15:28.597Z,1.45
2023-01-13T16:18:05.405Z,2.70
2023-01-13T16:20:34.329Z,1.02
2023-01-13T16:23:03.243Z,1.10
2023-01-13T16:25:31.737Z,1.30
2023-01-13T16:27:59.939Z,0.82
2023-01-13T16:30:30.924Z,1.50
2023-01-13T16:33:00.130Z,2.03
2023-01-13T16:35:29.953Z,2.00
2023-01-13T16:37:59.507Z,1.55
2023-01-13T16:40:31.518Z,2.05
2023-01-13T16:43:01.725Z,2.60
2023-01-13T16:45:34.481Z,2.40
2023-01-13T16:48:03.119Z,1.05
2023-01-13T16:50:40.431Z,1.30
2023-01-13T16:53:12.739Z,1.33
2023-01-13T16:55:42.807Z,1.33
2023-01-13T16:58:21.871Z,0.73
2023-01-13T17:00:50.370Z,1.40
2023-01-13T17:03:18.864Z,2.00
2023-01-13T17:05:48.467Z,1.50
2023-01-13T17:08:18.920Z,0.95
2023-01-13T17:10:48.397Z,0.88
2023-01-13T17:13:17.446Z,0.60
2023-01-13T17:15:47.036Z,0.88
2023-01-13T17:18:15.315Z,0.65
2023-01-13T17:20:43.740Z,1.30
2023-01-13T17:23:12.018Z,1.40
2023-01-13T17:25:40.285Z,1.00
2023-01-13T17:28:08.525Z,1.70
2023-01-13T17:30:40.306Z,2.10
2023-01-13T17:33:09.754Z,1.70
2023-01-13T17:35:40.480Z,3.65
2023-01-13T17:38:08.760Z,4.35
2023-01-13T17:40:38.576Z,4.03
2023-01-13T17:43:06.920Z,2.80
2023-01-13T17:45:35.347Z,4.65
2023-01-13T17:48:03.623Z,4.22
2023-01-13T17:50:33.418Z,4.50
2023-01-13T17:53:01.655Z,3.47
2023-01-13T17:55:29.897Z,4.05
2023-01-13T17:58:09.123Z,5.43
2023-01-13T18:00:37.394Z,4.97
2023-01-13T18:03:05.754Z,5.05
2023-01-13T18:05:34.941Z,5.32
2023-01-13T18:08:03.181Z,3.95
2023-01-13T18:10:31.835Z,2.92
2023-01-13T18:13:00.128Z,2.65
2023-01-13T18:15:28.416Z,3.15
2023-01-13T18:17:56.906Z,3.72
2023-01-13T18:20:43.511Z,4.40
2023-01-13T18:23:37.423Z,3.92
2023-01-13T18:26:41.877Z,3.70
2023-01-13T18:29:10.110Z,2.95
2023-01-13T18:31:38.365Z,3.45
2023-01-13T18:34:06.745Z,3.13
2023-01-13T18:36:35.099Z,2.55
2023-01-13T18:39:04.349Z,3.17
2023-01-13T18:41:51.111Z,2.70
2023-01-13T18:44:19.370Z,2.13
2023-01-13T18:46:47.614Z,1.58
2023-01-13T18:49:16.179Z,2.30
2023-01-13T18:51:44.499Z,2.00
2023-01-13T18:54:12.892Z,2.45
2023-01-13T18:56:41.315Z,1.40
2023-01-13T18:59:09.544Z,1.98
2023-01-13T19:01:38.942Z,2.28
2023-01-13T19:04:16.148Z,2.67
2023-01-13T19:06:51.216Z,2.00
2023-01-13T19:09:24.808Z,2.35
2023-01-13T19:11:54.117Z,2.17
2023-01-13T19:14:43.232Z,2.25
2023-01-13T19:17:14.176Z,1.92
2023-01-13T19:19:48.144Z,1.63
2023-01-13T19:22:20.651Z,2.35
2023-01-13T19:24:48.956Z,1.45
2023-01-13T19:27:19.200Z,3.08
2023-01-13T19:29:49.217Z,3.03
2023-01-13T19:32:22.438Z,3.80
2023-01-13T19:34:51.941Z,2.97
2023-01-13T19:37:21.008Z,3.15
2023-01-13T19:39:49.292Z,3.53
2023-01-13T19:42:36.036Z,3.30
2023-01-13T19:45:22.599Z,3.90
2023-01-13T19:47:50.892Z,3.35
2023-01-13T19:50:19.295Z,3.13
2023-01-13T19:52:47.660Z,4.05
2023-01-13T19:55:15.959Z,3.92
2023-01-13T19:57:44.299Z,3.55
2023-01-13T20:00:15.046Z,4.07
2023-01-13T20:02:49.975Z,4.47
2023-01-13T20:05:23.103Z,4.25
2023-01-13T20:07:52.000Z,3.30
2023-01-13T20:10:22.566Z,3.78
2023-01-13T20:12:50.869Z,3.53
2023-01-13T20:15:19.283Z,4.70
2023-01-13T20:17:47.661Z,5.93
2023-01-13T20:20:17.516Z,2.75
2023-01-13T20:22:46.628Z,5.82
2023-01-13T20:25:17.576Z,3.78
2023-01-13T20:27:47.959Z,2.75
2023-01-13T20:30:17.087Z,4.30
2023-01-13T20:32:45.881Z,3.50
2023-01-13T20:35:14.340Z,4.05
2023-01-13T20:37:44.273Z,4.22
2023-01-13T20:40:16.340Z,4.53
2023-01-13T20:42:47.468Z,4.82
2023-01-13T20:45:18.923Z,4.03
2023-01-13T20:50:16.481Z,2.28
2023-01-13T20:52:45.331Z,3.33
2023-01-13T20:55:14.128Z,3.15
2023-01-13T20:57:49.335Z,3.20
2023-01-13T21:00:18.134Z,2.80
2023-01-13T21:02:46.424Z,2.75
2023-01-13T21:05:15.151Z,3.30
2023-01-13T21:07:43.500Z,3.45
2023-01-13T21:10:14.843Z,3.20
2023-01-13T21:15:29.471Z,2.95
2023-01-13T21:18:15.907Z,1.30
2023-01-13T21:20:45.000Z,3.10
2023-01-13T21:23:13.754Z,2.75
2023-01-13T21:25:42.064Z,1.73
2023-01-13T21:28:12.443Z,3.33
2023-01-13T21:30:41.212Z,2.97
2023-01-13T21:33:12.842Z,3.08
2023-01-13T21:35:41.697Z,3.55
2023-01-13T21:38:11.629Z,2.28
2023-01-13T21:40:40.131Z,3.25
2023-01-13T21:43:48.287Z,3.65
2023-01-13T21:46:35.004Z,2.75
